sensor_id;sensor_type;location;lat;lon;timestamp;pressure;altitude;pressure_sealevel;temperature;humidity
20043;BME280;10182;52.896;6.496;2023-10-19T00:00:13;99477.34;;;7.69;100.00
20043;BME280;10182;52.896;6.496;2023-10-19T00:05:23;99478.44;;;7.65;100.00
20043;BME280;10182;52.896;6.496;2023-10-19T00:10:27;99469.69;;;7.65;100.00
20043;BME280;10182;52.896;6.496;2023-10-19T00:15:34;99463.13;;;7.56;100.00
20043;BME280;10182;52.896;6.496;2023-10-19T00:20:42;99442.66;;;7.61;100.00
20043;BME280;10182;52.896;6.496;2023-10-19T00:25:51;99429.25;;;7.66;100.00
20043;BME280;10182;52.896;6.496;2023-10-19T00:30:54;99421.34;;;7.66;100.00
20043;BME280;10182;52.896;6.496;2023-10-19T00:36:05;99421.66;;;7.59;100.00
20043;BME280;10182;52.896;6.496;2023-10-19T00:41:09;99411.47;;;7.53;100.00
20043;BME280;10182;52.896;6.496;2023-10-19T00:46:20;99411.13;;;7.59;100.00
20043;BME280;10182;52.896;6.496;2023-10-19T00:51:26;99410.19;;;7.60;100.00
20043;BME280;10182;52.896;6.496;2023-10-19T00:56:43;99391.06;;;7.57;100.00
20043;BME280;10182;52.896;6.496;2023-10-19T01:01:50;99388.50;;;7.55;100.00
20043;BME280;10182;52.896;6.496;2023-10-19T01:06:55;99391.06;;;7.57;100.00
20043;BME280;10182;52.896;6.496;2023-10-19T01:12:05;99369.97;;;7.57;100.00
20043;BME280;10182;52.896;6.496;2023-10-19T01:17:22;99363.00;;;7.56;100.00
20043;BME280;10182;52.896;6.496;2023-10-19T01:22:28;99373.38;;;7.59;100.00
20043;BME280;10182;52.896;6.496;2023-10-19T01:27:31;99355.88;;;7.58;100.00
20043;BME280;10182;52.896;6.496;2023-10-19T01:32:33;99360.31;;;7.57;100.00
20043;BME280;10182;52.896;6.496;2023-10-19T01:37:35;99363.00;;;7.56;100.00
20043;BME280;10182;52.896;6.496;2023-10-19T01:42:39;99360.22;;;7.59;100.00
20043;BME280;10182;52.896;6.496;2023-10-19T01:47:41;99355.97;;;7.56;100.00
20043;BME280;10182;52.896;6.496;2023-10-19T01:52:43;99350.59;;;7.58;100.00
20043;BME280;10182;52.896;6.496;2023-10-19T01:57:46;99346.09;;;7.60;100.00
20043;BME280;10182;52.896;6.496;2023-10-19T02:02:48;99341.75;;;7.59;100.00
20043;BME280;10182;52.896;6.496;2023-10-19T02:07:50;99334.50;;;7.62;100.00
20043;BME280;10182;52.896;6.496;2023-10-19T02:12:54;99322.03;;;7.66;100.00
20043;BME280;10182;52.896;6.496;2023-10-19T02:17:55;99324.47;;;7.69;100.00
20043;BME280;10182;52.896;6.496;2023-10-19T02:23:02;99310.38;;;7.70;100.00
20043;BME280;10182;52.896;6.496;2023-10-19T02:28:06;99301.63;;;7.70;100.00
20043;BME280;10182;52.896;6.496;2023-10-19T02:33:09;99285.81;;;7.70;100.00
20043;BME280;10182;52.896;6.496;2023-10-19T02:38:12;99286.56;;;7.72;100.00
20043;BME280;10182;52.896;6.496;2023-10-19T02:43:15;99283.72;;;7.75;100.00
20043;BME280;10182;52.896;6.496;2023-10-19T02:48:17;99277.63;;;7.74;100.00
20043;BME280;10182;52.896;6.496;2023-10-19T02:53:19;99275.56;;;7.79;100.00
20043;BME280;10182;52.896;6.496;2023-10-19T02:58:22;99276.22;;;7.83;100.00
20043;BME280;10182;52.896;6.496;2023-10-19T03:03:24;99268.25;;;7.85;100.00
20043;BME280;10182;52.896;6.496;2023-10-19T03:08:26;99261.28;;;7.84;100.00
20043;BME280;10182;52.896;6.496;2023-10-19T03:13:29;99256.59;;;7.89;100.00
20043;BME280;10182;52.896;6.496;2023-10-19T03:18:33;99245.25;;;7.87;100.00
20043;BME280;10182;52.896;6.496;2023-10-19T03:23:34;99243.66;;;7.84;100.00
20043;BME280;10182;52.896;6.496;2023-10-19T03:28:39;99232.00;;;7.88;100.00
20043;BME280;10182;52.896;6.496;2023-10-19T03:33:43;99234.53;;;7.90;100.00
20043;BME280;10182;52.896;6.496;2023-10-19T03:38:48;99232.75;;;7.90;100.00
20043;BME280;10182;52.896;6.496;2023-10-19T03:43:54;99237.94;;;7.92;100.00
20043;BME280;10182;52.896;6.496;2023-10-19T03:48:58;99230.78;;;7.94;100.00
20043;BME280;10182;52.896;6.496;2023-10-19T03:54:11;99235.88;;;7.97;100.00
20043;BME280;10182;52.896;6.496;2023-10-19T03:59:24;99225.69;;;7.91;100.00
20043;BME280;10182;52.896;6.496;2023-10-19T04:04:29;99221.09;;;7.94;100.00
20043;BME280;10182;52.896;6.496;2023-10-19T04:09:31;99217.44;;;7.97;100.00
20043;BME280;10182;52.896;6.496;2023-10-19T04:14:35;99218.16;;;7.99;100.00
20043;BME280;10182;52.896;6.496;2023-10-19T04:19:39;99213.66;;;8.01;100.00
20043;BME280;10182;52.896;6.496;2023-10-19T04:24:40;99210.16;;;8.01;100.00
20043;BME280;10182;52.896;6.496;2023-10-19T04:29:43;99216.94;;;8.05;100.00
20043;BME280;10182;52.896;6.496;2023-10-19T04:34:45;99207.91;;;8.09;100.00
20043;BME280;10182;52.896;6.496;2023-10-19T04:39:47;99208.88;;;8.08;100.00
20043;BME280;10182;52.896;6.496;2023-10-19T04:44:51;99198.97;;;8.11;100.00
20043;BME280;10182;52.896;6.496;2023-10-19T04:49:52;99199.63;;;8.15;100.00
20043;BME280;10182;52.896;6.496;2023-10-19T04:54:54;99196.59;;;8.21;100.00
20043;BME280;10182;52.896;6.496;2023-10-19T04:59:57;99201.72;;;8.24;100.00
20043;BME280;10182;52.896;6.496;2023-10-19T05:04:59;99193.97;;;8.21;100.00
20043;BME280;10182;52.896;6.496;2023-10-19T05:10:01;99194.44;;;8.28;100.00
20043;BME280;10182;52.896;6.496;2023-10-19T05:15:07;99203.59;;;8.22;100.00
20043;BME280;10182;52.896;6.496;2023-10-19T05:20:10;99197.47;;;8.22;100.00
20043;BME280;10182;52.896;6.496;2023-10-19T05:25:12;99197.66;;;8.33;100.00
20043;BME280;10182;52.896;6.496;2023-10-19T05:30:15;99198.13;;;8.25;100.00
20043;BME280;10182;52.896;6.496;2023-10-19T05:35:17;99198.59;;;8.32;100.00
20043;BME280;10182;52.896;6.496;2023-10-19T05:40:23;99204.63;;;8.34;100.00
20043;BME280;10182;52.896;6.496;2023-10-19T05:45:30;99203.50;;;8.38;100.00
20043;BME280;10182;52.896;6.496;2023-10-19T05:50:32;99205.19;;;8.39;100.00
20043;BME280;10182;52.896;6.496;2023-10-19T05:55:34;99214.06;;;8.38;100.00
20043;BME280;10182;52.896;6.496;2023-10-19T06:00:37;99210.53;;;8.38;100.00
20043;BME280;10182;52.896;6.496;2023-10-19T06:05:39;99222.69;;;8.40;100.00
20043;BME280;10182;52.896;6.496;2023-10-19T06:10:40;99223.31;;;8.45;100.00
20043;BME280;10182;52.896;6.496;2023-10-19T06:15:44;99225.84;;;8.47;100.00
20043;BME280;10182;52.896;6.496;2023-10-19T06:20:46;99228.66;;;8.44;100.00
20043;BME280;10182;52.896;6.496;2023-10-19T06:25:48;99237.34;;;8.46;100.00
20043;BME280;10182;52.896;6.496;2023-10-19T06:30:53;99251.97;;;8.52;100.00
20043;BME280;10182;52.896;6.496;2023-10-19T06:35:54;99257.16;;;8.53;100.00
20043;BME280;10182;52.896;6.496;2023-10-19T06:40:56;99260.91;;;8.49;100.00
20043;BME280;10182;52.896;6.496;2023-10-19T06:46:00;99263.56;;;8.49;100.00
20043;BME280;10182;52.896;6.496;2023-10-19T06:51:02;99265.81;;;8.55;100.00
20043;BME280;10182;52.896;6.496;2023-10-19T06:56:04;99263.84;;;8.59;100.00
20043;BME280;10182;52.896;6.496;2023-10-19T07:01:08;99270.63;;;8.63;100.00
20043;BME280;10182;52.896;6.496;2023-10-19T07:06:11;99264.94;;;8.69;100.00
20043;BME280;10182;52.896;6.496;2023-10-19T07:11:14;99263.81;;;8.73;100.00
20043;BME280;10182;52.896;6.496;2023-10-19T07:16:17;99271.66;;;8.75;100.00
20043;BME280;10182;52.896;6.496;2023-10-19T07:21:20;99274.38;;;8.73;100.00
20043;BME280;10182;52.896;6.496;2023-10-19T07:26:23;99276.16;;;8.73;100.00
20043;BME280;10182;52.896;6.496;2023-10-19T07:31:33;99279.94;;;8.83;100.00
20043;BME280;10182;52.896;6.496;2023-10-19T07:36:34;99278.97;;;8.84;100.00
20043;BME280;10182;52.896;6.496;2023-10-19T07:41:37;99274.72;;;8.96;100.00
20043;BME280;10182;52.896;6.496;2023-10-19T07:46:40;99290.88;;;8.91;100.00
20043;BME280;10182;52.896;6.496;2023-10-19T07:51:46;99289.34;;;9.02;100.00
20043;BME280;10182;52.896;6.496;2023-10-19T07:56:48;99284.63;;;9.07;100.00
20043;BME280;10182;52.896;6.496;2023-10-19T08:01:51;99289.50;;;9.13;100.00
20043;BME280;10182;52.896;6.496;2023-10-19T08:06:53;99328.69;;;9.06;100.00
20043;BME280;10182;52.896;6.496;2023-10-19T08:11:55;99317.81;;;9.11;100.00
20043;BME280;10182;52.896;6.496;2023-10-19T08:17:00;99311.88;;;9.07;100.00
20043;BME280;10182;52.896;6.496;2023-10-19T08:22:02;99309.41;;;9.19;100.00
20043;BME280;10182;52.896;6.496;2023-10-19T08:27:05;99297.03;;;9.19;100.00
20043;BME280;10182;52.896;6.496;2023-10-19T08:32:08;99309.47;;;9.31;100.00
20043;BME280;10182;52.896;6.496;2023-10-19T08:37:09;99309.00;;;9.25;100.00
20043;BME280;10182;52.896;6.496;2023-10-19T08:42:11;99315.59;;;9.32;100.00
20043;BME280;10182;52.896;6.496;2023-10-19T08:47:15;99313.59;;;9.36;100.00
20043;BME280;10182;52.896;6.496;2023-10-19T08:52:17;99307.38;;;9.37;100.00
20043;BME280;10182;52.896;6.496;2023-10-19T08:57:22;99313.56;;;9.23;100.00
20043;BME280;10182;52.896;6.496;2023-10-19T09:02:26;99308.66;;;9.17;100.00
20043;BME280;10182;52.896;6.496;2023-10-19T09:07:27;99319.13;;;9.18;100.00
20043;BME280;10182;52.896;6.496;2023-10-19T09:12:31;99319.94;;;9.33;100.00
20043;BME280;10182;52.896;6.496;2023-10-19T09:17:34;99314.84;;;9.30;100.00
20043;BME280;10182;52.896;6.496;2023-10-19T09:22:36;99322.31;;;9.38;100.00
20043;BME280;10182;52.896;6.496;2023-10-19T09:27:44;99312.34;;;9.41;100.00
20043;BME280;10182;52.896;6.496;2023-10-19T09:32:48;99314.97;;;9.56;100.00
20043;BME280;10182;52.896;6.496;2023-10-19T09:37:49;99313.06;;;9.58;100.00
20043;BME280;10182;52.896;6.496;2023-10-19T09:42:56;99315.00;;;9.69;100.00
20043;BME280;10182;52.896;6.496;2023-10-19T09:48:02;99312.06;;;9.73;100.00
20043;BME280;10182;52.896;6.496;2023-10-19T09:53:06;99302.03;;;9.78;100.00
20043;BME280;10182;52.896;6.496;2023-10-19T09:58:12;99299.28;;;9.80;100.00
20043;BME280;10182;52.896;6.496;2023-10-19T10:03:44;99297.94;;;9.87;100.00
20043;BME280;10182;52.896;6.496;2023-10-19T10:08:46;99290.84;;;9.88;100.00
20043;BME280;10182;52.896;6.496;2023-10-19T10:13:50;99288.53;;;9.96;100.00
20043;BME280;10182;52.896;6.496;2023-10-19T10:18:56;99274.75;;;9.91;100.00
20043;BME280;10182;52.896;6.496;2023-10-19T10:24:02;99275.94;;;9.99;100.00
20043;BME280;10182;52.896;6.496;2023-10-19T10:29:09;99269.59;;;10.15;100.00
20043;BME280;10182;52.896;6.496;2023-10-19T10:34:42;99276.50;;;10.18;100.00
20043;BME280;10182;52.896;6.496;2023-10-19T10:39:45;99273.94;;;10.29;100.00
20043;BME280;10182;52.896;6.496;2023-10-19T10:44:47;99296.44;;;10.36;100.00
20043;BME280;10182;52.896;6.496;2023-10-19T10:49:55;99286.69;;;10.49;100.00
20043;BME280;10182;52.896;6.496;2023-10-19T10:54:57;99289.88;;;10.55;100.00
20043;BME280;10182;52.896;6.496;2023-10-19T11:00:07;99299.72;;;10.53;100.00
20043;BME280;10182;52.896;6.496;2023-10-19T11:05:12;99295.06;;;10.56;100.00
20043;BME280;10182;52.896;6.496;2023-10-19T11:10:14;99290.50;;;10.58;100.00
20043;BME280;10182;52.896;6.496;2023-10-19T11:15:21;99286.69;;;10.62;100.00
20043;BME280;10182;52.896;6.496;2023-10-19T11:20:25;99278.94;;;10.72;100.00
20043;BME280;10182;52.896;6.496;2023-10-19T11:25:28;99278.00;;;10.73;100.00
20043;BME280;10182;52.896;6.496;2023-10-19T11:30:31;99277.31;;;10.82;100.00
20043;BME280;10182;52.896;6.496;2023-10-19T11:35:34;99277.13;;;10.86;100.00
20043;BME280;10182;52.896;6.496;2023-10-19T11:40:38;99286.63;;;11.01;100.00
20043;BME280;10182;52.896;6.496;2023-10-19T11:45:39;99269.44;;;11.07;100.00
20043;BME280;10182;52.896;6.496;2023-10-19T11:50:43;99256.69;;;11.12;100.00
20043;BME280;10182;52.896;6.496;2023-10-19T11:55:45;99241.84;;;11.22;100.00
20043;BME280;10182;52.896;6.496;2023-10-19T12:00:48;99246.69;;;11.28;100.00
20043;BME280;10182;52.896;6.496;2023-10-19T12:05:53;99261.03;;;11.37;100.00
20043;BME280;10182;52.896;6.496;2023-10-19T12:10:55;99250.69;;;11.34;100.00
20043;BME280;10182;52.896;6.496;2023-10-19T12:15:57;99252.50;;;11.33;100.00
20043;BME280;10182;52.896;6.496;2023-10-19T12:21:00;99244.06;;;11.40;100.00
20043;BME280;10182;52.896;6.496;2023-10-19T12:26:02;99232.34;;;11.31;100.00
20043;BME280;10182;52.896;6.496;2023-10-19T12:31:11;99236.47;;;11.35;100.00
20043;BME280;10182;52.896;6.496;2023-10-19T12:36:14;99227.41;;;11.26;100.00
20043;BME280;10182;52.896;6.496;2023-10-19T12:41:31;99232.97;;;11.34;100.00
20043;BME280;10182;52.896;6.496;2023-10-19T12:46:33;99209.16;;;11.22;100.00
20043;BME280;10182;52.896;6.496;2023-10-19T12:51:38;99220.31;;;11.14;100.00
20043;BME280;10182;52.896;6.496;2023-10-19T12:56:42;99219.09;;;11.07;100.00
20043;BME280;10182;52.896;6.496;2023-10-19T13:01:44;99211.13;;;11.07;100.00
20043;BME280;10182;52.896;6.496;2023-10-19T13:06:50;99220.78;;;11.08;100.00
20043;BME280;10182;52.896;6.496;2023-10-19T13:11:52;99233.69;;;11.12;100.00
20043;BME280;10182;52.896;6.496;2023-10-19T13:16:53;99215.19;;;10.99;100.00
20043;BME280;10182;52.896;6.496;2023-10-19T13:21:57;99213.72;;;10.95;100.00
20043;BME280;10182;52.896;6.496;2023-10-19T13:27:05;99216.50;;;10.94;100.00
20043;BME280;10182;52.896;6.496;2023-10-19T13:32:06;99214.13;;;11.02;100.00
20043;BME280;10182;52.896;6.496;2023-10-19T13:37:09;99213.84;;;10.94;100.00
20043;BME280;10182;52.896;6.496;2023-10-19T13:42:11;99216.72;;;10.91;100.00
20043;BME280;10182;52.896;6.496;2023-10-19T13:47:14;99206.84;;;10.93;100.00
20043;BME280;10182;52.896;6.496;2023-10-19T13:52:17;99222.78;;;10.80;100.00
20043;BME280;10182;52.896;6.496;2023-10-19T13:57:19;99223.63;;;10.80;100.00
20043;BME280;10182;52.896;6.496;2023-10-19T14:02:21;99217.28;;;10.83;100.00
20043;BME280;10182;52.896;6.496;2023-10-19T14:07:26;99213.97;;;10.79;100.00
20043;BME280;10182;52.896;6.496;2023-10-19T14:12:28;99219.28;;;10.79;100.00
20043;BME280;10182;52.896;6.496;2023-10-19T14:17:30;99211.44;;;10.78;100.00
20043;BME280;10182;52.896;6.496;2023-10-19T14:22:33;99203.38;;;10.79;100.00
20043;BME280;10182;52.896;6.496;2023-10-19T14:27:40;99191.66;;;10.71;100.00
20043;BME280;10182;52.896;6.496;2023-10-19T14:32:45;99184.66;;;10.70;100.00
20043;BME280;10182;52.896;6.496;2023-10-19T14:37:50;99180.78;;;10.62;100.00
20043;BME280;10182;52.896;6.496;2023-10-19T14:42:52;99188.84;;;10.61;100.00
20043;BME280;10182;52.896;6.496;2023-10-19T14:47:56;99194.13;;;10.61;100.00
20043;BME280;10182;52.896;6.496;2023-10-19T14:53:00;99194.56;;;10.55;100.00
20043;BME280;10182;52.896;6.496;2023-10-19T14:58:02;99182.69;;;10.60;100.00
20043;BME280;10182;52.896;6.496;2023-10-19T15:03:06;99176.38;;;10.50;100.00
20043;BME280;10182;52.896;6.496;2023-10-19T15:08:10;99151.19;;;10.44;100.00
20043;BME280;10182;52.896;6.496;2023-10-19T15:13:11;99160.06;;;10.43;100.00
20043;BME280;10182;52.896;6.496;2023-10-19T15:18:13;99166.19;;;10.44;100.00
20043;BME280;10182;52.896;6.496;2023-10-19T15:23:16;99165.59;;;10.40;100.00
20043;BME280;10182;52.896;6.496;2023-10-19T15:28:18;99157.84;;;10.37;100.00
20043;BME280;10182;52.896;6.496;2023-10-19T15:33:20;99165.34;;;10.30;100.00
20043;BME280;10182;52.896;6.496;2023-10-19T15:38:23;99156.91;;;10.25;100.00
20043;BME280;10182;52.896;6.496;2023-10-19T15:43:25;99155.72;;;10.29;100.00
20043;BME280;10182;52.896;6.496;2023-10-19T15:48:27;99151.28;;;10.17;100.00
20043;BME280;10182;52.896;6.496;2023-10-19T15:53:32;99158.81;;;10.10;100.00
20043;BME280;10182;52.896;6.496;2023-10-19T15:58:33;99153.31;;;10.13;100.00
20043;BME280;10182;52.896;6.496;2023-10-19T16:03:35;99143.78;;;10.11;100.00
20043;BME280;10182;52.896;6.496;2023-10-19T16:08:38;99153.53;;;10.10;100.00
20043;BME280;10182;52.896;6.496;2023-10-19T16:13:40;99146.88;;;10.05;100.00
20043;BME280;10182;52.896;6.496;2023-10-19T16:18:44;99154.38;;;9.85;100.00
20043;BME280;10182;52.896;6.496;2023-10-19T16:23:48;99137.66;;;9.97;100.00
20043;BME280;10182;52.896;6.496;2023-10-19T16:28:50;99151.41;;;9.90;100.00
20043;BME280;10182;52.896;6.496;2023-10-19T16:33:52;99148.97;;;9.87;100.00
20043;BME280;10182;52.896;6.496;2023-10-19T16:38:55;99153.63;;;9.83;100.00
20043;BME280;10182;52.896;6.496;2023-10-19T16:43:59;99147.38;;;9.84;100.00
20043;BME280;10182;52.896;6.496;2023-10-19T16:49:00;99161.47;;;9.85;100.00
20043;BME280;10182;52.896;6.496;2023-10-19T16:54:05;99156.06;;;9.86;100.00
20043;BME280;10182;52.896;6.496;2023-10-19T16:59:07;99152.44;;;9.74;100.00
20043;BME280;10182;52.896;6.496;2023-10-19T17:04:12;99152.34;;;9.76;100.00
20043;BME280;10182;52.896;6.496;2023-10-19T17:09:19;99150.47;;;9.65;100.00
20043;BME280;10182;52.896;6.496;2023-10-19T17:14:21;99141.78;;;9.50;100.00
20043;BME280;10182;52.896;6.496;2023-10-19T17:19:23;99153.28;;;9.49;100.00
20043;BME280;10182;52.896;6.496;2023-10-19T17:24:27;99140.50;;;9.56;100.00
20043;BME280;10182;52.896;6.496;2023-10-19T17:29:29;99141.84;;;9.48;100.00
20043;BME280;10182;52.896;6.496;2023-10-19T17:34:31;99137.00;;;9.42;100.00
20043;BME280;10182;52.896;6.496;2023-10-19T17:39:36;99137.94;;;9.41;100.00
20043;BME280;10182;52.896;6.496;2023-10-19T17:44:38;99141.84;;;9.36;100.00
20043;BME280;10182;52.896;6.496;2023-10-19T17:49:39;99142.06;;;9.45;100.00
20043;BME280;10182;52.896;6.496;2023-10-19T17:54:43;99136.16;;;9.42;100.00
20043;BME280;10182;52.896;6.496;2023-10-19T17:59:45;99135.06;;;9.31;100.00
20043;BME280;10182;52.896;6.496;2023-10-19T18:04:47;99131.69;;;9.29;100.00
20043;BME280;10182;52.896;6.496;2023-10-19T18:09:51;99124.81;;;9.27;100.00
20043;BME280;10182;52.896;6.496;2023-10-19T18:14:53;99121.31;;;9.26;100.00
20043;BME280;10182;52.896;6.496;2023-10-19T18:19:55;99128.66;;;9.08;100.00
20043;BME280;10182;52.896;6.496;2023-10-19T18:24:58;99128.34;;;9.13;100.00
20043;BME280;10182;52.896;6.496;2023-10-19T18:30:00;99126.97;;;9.07;100.00
20043;BME280;10182;52.896;6.496;2023-10-19T18:35:02;99112.09;;;9.06;100.00
20043;BME280;10182;52.896;6.496;2023-10-19T18:40:06;99124.19;;;8.96;100.00
20043;BME280;10182;52.896;6.496;2023-10-19T18:45:08;99129.88;;;8.90;100.00
20043;BME280;10182;52.896;6.496;2023-10-19T18:50:11;99125.78;;;8.98;100.00
20043;BME280;10182;52.896;6.496;2023-10-19T18:55:15;99124.91;;;8.85;100.00
20043;BME280;10182;52.896;6.496;2023-10-19T19:00:23;99138.91;;;9.00;100.00
20043;BME280;10182;52.896;6.496;2023-10-19T19:05:25;99131.38;;;8.94;100.00
20043;BME280;10182;52.896;6.496;2023-10-19T19:10:29;99123.75;;;8.89;100.00
20043;BME280;10182;52.896;6.496;2023-10-19T19:15:33;99114.81;;;8.77;100.00
20043;BME280;10182;52.896;6.496;2023-10-19T19:20:37;99110.09;;;8.83;100.00
20043;BME280;10182;52.896;6.496;2023-10-19T19:25:43;99098.91;;;8.79;100.00
20043;BME280;10182;52.896;6.496;2023-10-19T19:30:50;99097.50;;;8.73;100.00
20043;BME280;10182;52.896;6.496;2023-10-19T19:35:51;99091.03;;;8.64;100.00
20043;BME280;10182;52.896;6.496;2023-10-19T19:40:54;99081.41;;;8.63;100.00
20043;BME280;10182;52.896;6.496;2023-10-19T19:45:56;99083.06;;;8.52;100.00
20043;BME280;10182;52.896;6.496;2023-10-19T19:50:58;99095.13;;;8.56;100.00
20043;BME280;10182;52.896;6.496;2023-10-19T19:56:04;99092.38;;;8.57;100.00
20043;BME280;10182;52.896;6.496;2023-10-19T20:01:09;99089.28;;;8.51;100.00
20043;BME280;10182;52.896;6.496;2023-10-19T20:06:11;99063.56;;;8.40;100.00
20043;BME280;10182;52.896;6.496;2023-10-19T20:11:19;99054.16;;;8.36;100.00
20043;BME280;10182;52.896;6.496;2023-10-19T20:16:21;99052.28;;;8.23;100.00
20043;BME280;10182;52.896;6.496;2023-10-19T20:21:23;99057.81;;;8.33;100.00
20043;BME280;10182;52.896;6.496;2023-10-19T20:26:26;99068.16;;;8.36;100.00
20043;BME280;10182;52.896;6.496;2023-10-19T20:31:29;99065.59;;;8.22;100.00
20043;BME280;10182;52.896;6.496;2023-10-19T20:36:31;99074.59;;;8.32;100.00
20043;BME280;10182;52.896;6.496;2023-10-19T20:41:34;99083.47;;;8.31;100.00
20043;BME280;10182;52.896;6.496;2023-10-19T20:46:42;99056.13;;;8.32;100.00
20043;BME280;10182;52.896;6.496;2023-10-19T20:51:44;99053.47;;;8.32;100.00
20043;BME280;10182;52.896;6.496;2023-10-19T20:56:48;99060.66;;;8.30;100.00
20043;BME280;10182;52.896;6.496;2023-10-19T21:01:49;99055.50;;;8.28;100.00
20043;BME280;10182;52.896;6.496;2023-10-19T21:06:51;99047.38;;;8.32;100.00
20043;BME280;10182;52.896;6.496;2023-10-19T21:11:54;99051.34;;;8.24;100.00
20043;BME280;10182;52.896;6.496;2023-10-19T21:16:56;99045.53;;;8.19;100.00
20043;BME280;10182;52.896;6.496;2023-10-19T21:21:58;99070.66;;;8.25;100.00
20043;BME280;10182;52.896;6.496;2023-10-19T21:27:02;99051.84;;;8.17;100.00
20043;BME280;10182;52.896;6.496;2023-10-19T21:32:04;99055.16;;;8.06;100.00
20043;BME280;10182;52.896;6.496;2023-10-19T21:37:06;99041.59;;;7.97;100.00
20043;BME280;10182;52.896;6.496;2023-10-19T21:42:09;99049.25;;;7.88;100.00
20043;BME280;10182;52.896;6.496;2023-10-19T21:47:11;99023.53;;;7.91;100.00
20043;BME280;10182;52.896;6.496;2023-10-19T21:52:13;99020.91;;;7.91;100.00
20043;BME280;10182;52.896;6.496;2023-10-19T21:57:16;99011.66;;;7.84;100.00
20043;BME280;10182;52.896;6.496;2023-10-19T22:02:18;98977.59;;;7.81;100.00
20043;BME280;10182;52.896;6.496;2023-10-19T22:07:19;98976.94;;;7.92;100.00
20043;BME280;10182;52.896;6.496;2023-10-19T22:12:23;98986.44;;;7.94;100.00
20043;BME280;10182;52.896;6.496;2023-10-19T22:17:25;98983.91;;;7.93;100.00
20043;BME280;10182;52.896;6.496;2023-10-19T22:22:27;98986.72;;;7.90;100.00
20043;BME280;10182;52.896;6.496;2023-10-19T22:27:30;98971.84;;;7.89;100.00
20043;BME280;10182;52.896;6.496;2023-10-19T22:32:32;98969.69;;;7.81;100.00
20043;BME280;10182;52.896;6.496;2023-10-19T22:37:34;98981.28;;;7.78;100.00
20043;BME280;10182;52.896;6.496;2023-10-19T22:42:37;98995.50;;;7.76;100.00
20043;BME280;10182;52.896;6.496;2023-10-19T22:47:39;98960.97;;;7.66;100.00
20043;BME280;10182;52.896;6.496;2023-10-19T22:52:41;98984.63;;;7.53;100.00
20043;BME280;10182;52.896;6.496;2023-10-19T22:57:44;98978.13;;;7.59;100.00
20043;BME280;10182;52.896;6.496;2023-10-19T23:02:51;98976.09;;;7.62;100.00
20043;BME280;10182;52.896;6.496;2023-10-19T23:07:53;98974.72;;;7.57;100.00
20043;BME280;10182;52.896;6.496;2023-10-19T23:12:57;98980.06;;;7.70;100.00
20043;BME280;10182;52.896;6.496;2023-10-19T23:18:00;98984.00;;;7.62;100.00
20043;BME280;10182;52.896;6.496;2023-10-19T23:23:03;98961.25;;;7.61;100.00
20043;BME280;10182;52.896;6.496;2023-10-19T23:28:07;98964.38;;;7.68;100.00
20043;BME280;10182;52.896;6.496;2023-10-19T23:33:13;98961.25;;;7.47;100.00
20043;BME280;10182;52.896;6.496;2023-10-19T23:38:14;98979.25;;;7.55;100.00
20043;BME280;10182;52.896;6.496;2023-10-19T23:43:18;98998.34;;;7.44;100.00
20043;BME280;10182;52.896;6.496;2023-10-19T23:48:20;98984.63;;;7.53;100.00
20043;BME280;10182;52.896;6.496;2023-10-19T23:53:22;98992.78;;;7.49;100.00
20043;BME280;10182;52.896;6.496;2023-10-19T23:58:25;98977.28;;;7.44;100.00
